Time;durP1;ratioP1;P1;durP2;ratioP2;P2;SDS_P1;SDS_P2;PMS_P1;PMS_P2;Temp;Humidity;BMP_temperature;BMP_pressure;BME280_temperature;BME280_humidity;BME280_pressure;Samples;Min_cycle;Max_cycle;Signal;HPM_P1;HPM_P2
2022/10/11 00:02:21;;;;;;;30.17;18.57;;;;;;;;;;5016610;28;20687;-71
2022/10/11 00:04:49;;;;;;;32.10;16.00;;;;;;;;;;5017183;28;20175;-71
2022/10/11 00:07:15;;;;;;;23.57;10.70;;;;;;;;;;5034938;28;20175;-71
2022/10/11 00:09:41;;;;;;;24.63;10.77;;;;;;;;;;5034639;28;20186;-71
2022/10/11 00:12:07;;;;;;;22.20;9.63;;;;;;;;;;5034635;28;20179;-71
2022/10/11 00:14:33;;;;;;;26.83;10.33;;;;;;;;;;5016876;28;20183;-71
2022/10/11 00:16:59;;;;;;;16.63;9.93;;;;;;;;;;5034708;28;20574;-71
2022/10/11 00:19:25;;;;;;;15.27;9.70;;;;;;;;;;5035249;28;20544;-71
2022/10/11 00:21:51;;;;;;;15.73;9.77;;;;;;;;;;5034861;28;20666;-70
2022/10/11 00:24:17;;;;;;;26.00;12.23;;;;;;;;;;5034598;28;20551;-71
2022/10/11 00:26:43;;;;;;;25.10;11.60;;;;;;;;;;5034493;28;20179;-71
2022/10/11 00:29:11;;;;;;;18.93;10.53;;;;;;;;;;5016916;28;20655;-71
2022/10/11 00:31:37;;;;;;;20.70;8.77;;;;;;;;;;5016314;28;20241;-71
2022/10/11 00:34:03;;;;;;;16.57;9.13;;;;;;;;;;5034181;28;20199;-71
2022/10/11 00:36:29;;;;;;;18.00;8.77;;;;;;;;;;5016324;28;20644;-71
2022/10/11 00:38:55;;;;;;;18.73;9.33;;;;;;;;;;5016235;28;20675;-72
2022/10/11 00:41:21;;;;;;;17.93;8.53;;;;;;;;;;5034355;28;20564;-71
2022/10/11 00:43:47;;;;;;;24.10;9.67;;;;;;;;;;5034119;28;20206;-72
2022/10/11 00:46:13;;;;;;;23.83;9.27;;;;;;;;;;5016468;28;20179;-71
2022/10/11 00:48:38;;;;;;;18.23;9.73;;;;;;;;;;5033672;28;20179;-71
2022/10/11 00:51:07;;;;;;;18.40;9.73;;;;;;;;;;5033930;28;20181;-71
2022/10/11 00:53:33;;;;;;;20.37;13.53;;;;;;;;;;5016052;28;20203;-71
2022/10/11 00:56:02;;;;;;;37.63;22.87;;;;;;;;;;5034378;28;20534;-71
2022/10/11 00:58:28;;;;;;;38.73;25.30;;;;;;;;;;5015956;28;20218;-71
2022/10/11 01:00:54;;;;;;;75.30;46.73;;;;;;;;;;5015910;28;20207;-71
2022/10/11 01:03:21;;;;;;;39.30;25.03;;;;;;;;;;5033810;28;20268;-71
2022/10/11 01:05:47;;;;;;;40.37;21.53;;;;;;;;;;5033831;28;20595;-71
2022/10/11 01:08:13;;;;;;;25.90;16.33;;;;;;;;;;5036890;28;20186;-70
2022/10/11 01:10:39;;;;;;;24.03;14.13;;;;;;;;;;5038152;28;20191;-72
2022/10/11 01:13:12;;;;;;;26.60;15.43;;;;;;;;;;5021317;28;20585;-70
2022/10/11 01:15:42;;;;;;;21.30;13.33;;;;;;;;;;5041845;28;20651;-70
2022/10/11 01:18:07;;;;;;;30.77;16.00;;;;;;;;;;5022997;28;20183;-70
2022/10/11 01:20:48;;;;;;;19.57;13.83;;;;;;;;;;5022874;28;20215;-70
2022/10/11 01:23:17;;;;;;;25.17;13.53;;;;;;;;;;5021741;28;20705;-70
2022/10/11 01:26:00;;;;;;;24.73;13.37;;;;;;;;;;5038722;28;20175;-70
2022/10/11 01:28:46;;;;;;;23.50;13.07;;;;;;;;;;5019051;28;20631;-70
2022/10/11 01:31:30;;;;;;;26.07;12.93;;;;;;;;;;5018886;28;20217;-71
2022/10/11 01:34:02;;;;;;;23.57;11.73;;;;;;;;;;5019234;28;20218;-71
2022/10/11 01:36:32;;;;;;;16.80;10.87;;;;;;;;;;5019483;28;20232;-71
2022/10/11 01:39:17;;;;;;;23.33;12.37;;;;;;;;;;5036503;28;20714;-71
2022/10/11 01:41:48;;;;;;;21.63;12.63;;;;;;;;;;5018823;28;20217;-70
2022/10/11 01:44:14;;;;;;;18.03;10.23;;;;;;;;;;5018818;28;20263;-71
2022/10/11 01:46:40;;;;;;;21.63;11.00;;;;;;;;;;5036667;28;20167;-71
2022/10/11 01:49:07;;;;;;;19.33;11.40;;;;;;;;;;5036715;28;20175;-71
2022/10/11 01:51:38;;;;;;;21.57;11.57;;;;;;;;;;5036672;28;20176;-71
2022/10/11 01:54:24;;;;;;;15.13;11.23;;;;;;;;;;5036621;28;20214;-73
2022/10/11 01:57:09;;;;;;;20.73;11.90;;;;;;;;;;5019060;28;20214;-71
2022/10/11 01:59:55;;;;;;;14.87;10.87;;;;;;;;;;5036508;28;20225;-71
2022/10/11 02:02:47;;;;;;;18.40;11.13;;;;;;;;;;5018388;28;20226;-72
2022/10/11 02:05:13;;;;;;;20.83;11.17;;;;;;;;;;5036481;28;20182;-71
2022/10/11 02:07:45;;;;;;;15.43;11.20;;;;;;;;;;5018505;28;20175;-71
2022/10/11 02:10:15;;;;;;;22.77;14.57;;;;;;;;;;5036163;28;20175;-71
2022/10/11 02:12:43;;;;;;;24.57;15.67;;;;;;;;;;5036694;28;20570;-71
2022/10/11 02:15:10;;;;;;;20.40;11.90;;;;;;;;;;5036439;28;20679;-71
2022/10/11 02:17:39;;;;;;;23.97;12.50;;;;;;;;;;5036168;28;20236;-71
2022/10/11 02:20:08;;;;;;;18.67;12.13;;;;;;;;;;5018532;28;20183;-72
2022/10/11 02:22:36;;;;;;;21.53;12.53;;;;;;;;;;5035761;28;20211;-72
2022/10/11 02:25:05;;;;;;;20.17;12.17;;;;;;;;;;5035920;28;20176;-71
2022/10/11 02:27:32;;;;;;;27.00;12.50;;;;;;;;;;5017981;28;20639;-71
2022/10/11 02:30:00;;;;;;;26.93;13.77;;;;;;;;;;5035854;28;20175;-72
2022/10/11 02:32:27;;;;;;;30.50;14.47;;;;;;;;;;5018117;28;20203;-71
2022/10/11 02:34:54;;;;;;;21.10;13.83;;;;;;;;;;5035747;28;20620;-71
2022/10/11 02:37:41;;;;;;;21.37;12.93;;;;;;;;;;5018094;28;20640;-72
2022/10/11 02:40:20;;;;;;;22.20;12.30;;;;;;;;;;5036423;28;20173;-71
2022/10/11 02:42:49;;;;;;;18.07;11.00;;;;;;;;;;5017748;28;20261;-71
2022/10/11 02:45:20;;;;;;;21.63;11.60;;;;;;;;;;5035758;28;20541;-71
2022/10/11 02:47:47;;;;;;;22.37;12.30;;;;;;;;;;5035413;28;20183;-73
2022/10/11 02:50:14;;;;;;;21.67;12.10;;;;;;;;;;5035337;28;20196;-71
2022/10/11 02:52:40;;;;;;;28.37;12.87;;;;;;;;;;5017392;28;20675;-71
2022/10/11 02:55:06;;;;;;;20.77;11.20;;;;;;;;;;5035207;28;20183;-72
2022/10/11 02:57:32;;;;;;;22.90;12.13;;;;;;;;;;5035407;28;20536;-70
2022/10/11 02:59:58;;;;;;;20.43;12.93;;;;;;;;;;5035678;28;20171;-72
2022/10/11 03:02:24;;;;;;;23.37;12.93;;;;;;;;;;5017016;28;20595;-71
2022/10/11 03:04:50;;;;;;;20.77;12.17;;;;;;;;;;5035363;28;20171;-71
2022/10/11 03:07:16;;;;;;;21.57;12.43;;;;;;;;;;5035135;28;20648;-71
2022/10/11 03:09:42;;;;;;;19.27;12.17;;;;;;;;;;5035035;28;20183;-71
2022/10/11 03:12:08;;;;;;;22.60;12.47;;;;;;;;;;5017917;28;20220;-71
2022/10/11 03:14:34;;;;;;;24.93;13.37;;;;;;;;;;5017405;28;20194;-71
2022/10/11 03:17:00;;;;;;;26.43;13.67;;;;;;;;;;5035020;28;20182;-71
2022/10/11 03:19:26;;;;;;;21.93;12.60;;;;;;;;;;5034817;28;20179;-72
2022/10/11 03:21:52;;;;;;;21.93;12.37;;;;;;;;;;5017203;28;20256;-71
2022/10/11 03:24:18;;;;;;;19.67;11.97;;;;;;;;;;5017251;28;20675;-71
2022/10/11 03:26:44;;;;;;;20.67;11.60;;;;;;;;;;5034572;28;20579;-71
2022/10/11 03:29:10;;;;;;;17.17;11.20;;;;;;;;;;5035110;28;20266;-71
2022/10/11 03:31:36;;;;;;;20.13;12.03;;;;;;;;;;5038818;28;20178;-71
2022/10/11 03:34:02;;;;;;;17.53;11.77;;;;;;;;;;5044510;28;20203;-72
2022/10/11 03:36:28;;;;;;;23.40;12.13;;;;;;;;;;5028976;28;20187;-71
2022/10/11 03:38:54;;;;;;;21.23;12.37;;;;;;;;;;5026551;28;20210;-71
2022/10/11 03:41:20;;;;;;;22.10;13.00;;;;;;;;;;5048643;28;20222;-71
2022/10/11 03:43:46;;;;;;;20.23;12.43;;;;;;;;;;5024304;28;20564;-71
2022/10/11 03:46:12;;;;;;;24.47;12.47;;;;;;;;;;5035022;28;20300;-72
2022/10/11 03:48:38;;;;;;;24.00;14.27;;;;;;;;;;5017154;28;20635;-71
2022/10/11 03:51:04;;;;;;;25.33;14.43;;;;;;;;;;5016794;28;20274;-72
2022/10/11 03:53:30;;;;;;;29.37;14.80;;;;;;;;;;5034777;28;20209;-70
2022/10/11 03:55:56;;;;;;;26.77;15.13;;;;;;;;;;5034784;28;20258;-72
2022/10/11 03:58:22;;;;;;;27.03;13.57;;;;;;;;;;5034310;28;20183;-71
2022/10/11 04:00:49;;;;;;;28.67;15.40;;;;;;;;;;5034525;28;20199;-72
2022/10/11 04:03:15;;;;;;;24.83;13.67;;;;;;;;;;5033827;28;20221;-72
2022/10/11 04:05:41;;;;;;;19.80;13.00;;;;;;;;;;5017107;28;20179;-72
2022/10/11 04:08:06;;;;;;;22.57;14.33;;;;;;;;;;5035592;28;20663;-71
2022/10/11 04:10:32;;;;;;;21.17;14.03;;;;;;;;;;5036963;28;20654;-71
2022/10/11 04:12:58;;;;;;;20.73;12.73;;;;;;;;;;5030615;28;20198;-71
2022/10/11 04:15:24;;;;;;;18.30;13.47;;;;;;;;;;5031314;28;20247;-71
2022/10/11 04:17:50;;;;;;;18.30;11.83;;;;;;;;;;5049748;28;20225;-71
2022/10/11 04:20:16;;;;;;;20.67;13.47;;;;;;;;;;5042388;28;20175;-73
2022/10/11 04:22:42;;;;;;;16.63;12.37;;;;;;;;;;5034176;28;20209;-71
2022/10/11 04:25:09;;;;;;;21.50;13.20;;;;;;;;;;5034353;28;20638;-71
2022/10/11 04:27:35;;;;;;;22.60;13.53;;;;;;;;;;5034659;28;20225;-71
2022/10/11 04:30:01;;;;;;;18.47;12.27;;;;;;;;;;5033704;28;20175;-71
2022/10/11 04:32:27;;;;;;;19.17;12.80;;;;;;;;;;5034193;28;20209;-71
2022/10/11 04:34:53;;;;;;;17.20;12.53;;;;;;;;;;5016060;28;20230;-71
2022/10/11 04:37:19;;;;;;;23.73;13.90;;;;;;;;;;5034011;28;20183;-70
2022/10/11 04:39:45;;;;;;;20.10;13.53;;;;;;;;;;5016292;28;20293;-72
2022/10/11 04:42:11;;;;;;;22.63;14.13;;;;;;;;;;5016219;28;20730;-71
2022/10/11 04:44:37;;;;;;;19.57;13.10;;;;;;;;;;5033888;28;20175;-71
2022/10/11 04:47:03;;;;;;;23.83;13.50;;;;;;;;;;5033630;28;20258;-71
2022/10/11 04:49:29;;;;;;;23.23;13.37;;;;;;;;;;5020087;28;20704;-72
2022/10/11 04:51:55;;;;;;;20.07;12.70;;;;;;;;;;5020093;28;20187;-72
2022/10/11 04:54:21;;;;;;;19.13;13.03;;;;;;;;;;5037726;28;20180;-72
2022/10/11 04:56:47;;;;;;;19.77;12.77;;;;;;;;;;5037595;28;20205;-72
2022/10/11 04:59:13;;;;;;;17.33;12.33;;;;;;;;;;5020077;28;20580;-69
2022/10/11 05:01:39;;;;;;;19.13;11.57;;;;;;;;;;5020245;28;20592;-69
2022/10/11 05:04:05;;;;;;;21.27;12.00;;;;;;;;;;5020158;28;20210;-70
2022/10/11 05:06:31;;;;;;;24.87;13.17;;;;;;;;;;5037952;28;20265;-72
2022/10/11 05:08:57;;;;;;;20.63;13.13;;;;;;;;;;5040731;28;20175;-72
2022/10/11 05:11:23;;;;;;;24.63;13.37;;;;;;;;;;5038612;28;20179;-71
2022/10/11 05:13:49;;;;;;;22.53;13.17;;;;;;;;;;5037339;28;20199;-71
2022/10/11 05:16:15;;;;;;;21.87;12.57;;;;;;;;;;5037534;28;20190;-72
2022/10/11 05:18:41;;;;;;;23.67;13.00;;;;;;;;;;5019609;28;20178;-71
2022/10/11 05:21:08;;;;;;;19.20;12.77;;;;;;;;;;5037293;28;20290;-71
2022/10/11 05:23:35;;;;;;;18.87;12.70;;;;;;;;;;5019271;28;20574;-71
2022/10/11 05:26:02;;;;;;;22.83;12.63;;;;;;;;;;5020138;28;20278;-71
2022/10/11 05:28:28;;;;;;;19.33;10.50;;;;;;;;;;5019197;28;20229;-72
2022/10/11 05:30:54;;;;;;;25.30;11.83;;;;;;;;;;5056806;23;20351;-70
2022/10/11 05:33:20;;;;;;;22.60;12.50;;;;;;;;;;5038553;28;20239;-71
2022/10/11 05:35:46;;;;;;;19.20;12.60;;;;;;;;;;5056344;28;20179;-71
2022/10/11 05:38:12;;;;;;;23.67;12.93;;;;;;;;;;5038376;28;20190;-70
2022/10/11 05:40:38;;;;;;;21.50;12.30;;;;;;;;;;5056197;28;20216;-70
2022/10/11 05:43:05;;;;;;;26.03;13.70;;;;;;;;;;5056102;28;20178;-71
2022/10/11 05:45:33;;;;;;;18.53;12.43;;;;;;;;;;5056093;28;20677;-70
2022/10/11 05:47:59;;;;;;;18.30;13.43;;;;;;;;;;5055986;28;20174;-70
2022/10/11 05:50:25;;;;;;;18.13;12.40;;;;;;;;;;5038109;28;20277;-70
2022/10/11 05:52:51;;;;;;;22.80;13.10;;;;;;;;;;5056362;28;20224;-71
2022/10/11 05:55:17;;;;;;;26.67;12.90;;;;;;;;;;5055839;28;20269;-71
2022/10/11 05:57:43;;;;;;;24.63;11.83;;;;;;;;;;5056446;28;20202;-71
2022/10/11 06:00:10;;;;;;;20.30;12.50;;;;;;;;;;5037640;28;20540;-71
2022/10/11 06:02:36;;;;;;;20.80;11.73;;;;;;;;;;5055857;28;20203;-70
2022/10/11 06:05:01;;;;;;;21.60;12.50;;;;;;;;;;5037933;28;20657;-71
2022/10/11 06:07:27;;;;;;;21.67;13.07;;;;;;;;;;5056293;28;20182;-71
2022/10/11 06:09:53;;;;;;;21.37;12.13;;;;;;;;;;5038853;28;20627;-71
2022/10/11 06:12:20;;;;;;;22.20;13.40;;;;;;;;;;5057139;28;20243;-70
2022/10/11 06:14:46;;;;;;;20.10;13.00;;;;;;;;;;5056412;28;20196;-70
2022/10/11 06:17:12;;;;;;;24.20;14.27;;;;;;;;;;5055846;28;20631;-69
2022/10/11 06:19:38;;;;;;;22.10;14.80;;;;;;;;;;5056018;28;20193;-70
2022/10/11 06:22:04;;;;;;;26.67;15.80;;;;;;;;;;5055945;28;20207;-69
2022/10/11 06:24:30;;;;;;;23.67;13.67;;;;;;;;;;5037667;28;20178;-71
2022/10/11 06:26:56;;;;;;;22.23;13.70;;;;;;;;;;5055352;28;20255;-70
2022/10/11 06:29:22;;;;;;;21.63;13.90;;;;;;;;;;5037633;28;20273;-70
2022/10/11 06:31:48;;;;;;;21.13;13.37;;;;;;;;;;5037771;28;20334;-70
2022/10/11 06:34:15;;;;;;;20.17;12.83;;;;;;;;;;5055505;28;20179;-70
2022/10/11 06:36:41;;;;;;;21.40;13.40;;;;;;;;;;5056280;28;20262;-70
2022/10/11 06:39:07;;;;;;;22.27;14.13;;;;;;;;;;5037450;28;20213;-70
2022/10/11 06:41:33;;;;;;;18.60;14.50;;;;;;;;;;5055163;28;20213;-70
2022/10/11 06:43:59;;;;;;;23.70;15.27;;;;;;;;;;5055378;28;20171;-70
2022/10/11 06:46:26;;;;;;;30.20;18.50;;;;;;;;;;5038182;28;20223;-70
2022/10/11 06:48:52;;;;;;;25.83;19.03;;;;;;;;;;5037516;28;20189;-71
2022/10/11 06:51:19;;;;;;;28.50;18.47;;;;;;;;;;5052015;28;20206;-70
2022/10/11 06:53:54;;;;;;;28.23;19.90;;;;;;;;;;5054378;28;20650;-71
2022/10/11 06:56:20;;;;;;;31.20;19.40;;;;;;;;;;5071483;28;20174;-70
2022/10/11 06:58:46;;;;;;;29.50;17.87;;;;;;;;;;5072127;28;20189;-70
2022/10/11 07:01:15;;;;;;;19.77;13.83;;;;;;;;;;5042677;28;20214;-70
2022/10/11 07:03:40;;;;;;;26.57;14.10;;;;;;;;;;5056100;28;20221;-70
2022/10/11 07:06:08;;;;;;;23.33;14.43;;;;;;;;;;5055443;28;20178;-70
2022/10/11 07:08:34;;;;;;;24.50;14.13;;;;;;;;;;5055264;28;20185;-70
2022/10/11 07:11:05;;;;;;;21.10;13.30;;;;;;;;;;5035702;28;20202;-70
2022/10/11 07:13:31;;;;;;;23.17;13.27;;;;;;;;;;5037381;28;20593;-70
2022/10/11 07:15:59;;;;;;;23.87;13.00;;;;;;;;;;5055452;28;20236;-70
2022/10/11 07:18:25;;;;;;;24.77;16.47;;;;;;;;;;5054921;28;20175;-70
2022/10/11 07:20:51;;;;;;;24.40;16.73;;;;;;;;;;5055005;28;20725;-70
2022/10/11 07:23:17;;;;;;;33.67;28.13;;;;;;;;;;5036425;28;20638;-70
2022/10/11 07:25:44;;;;;;;25.67;18.83;;;;;;;;;;5054678;28;20179;-69
2022/10/11 07:28:10;;;;;;;23.77;15.40;;;;;;;;;;5054627;28;20181;-70
2022/10/11 07:30:41;;;;;;;25.33;15.07;;;;;;;;;;5036366;28;20224;-70
2022/10/11 07:33:07;;;;;;;21.17;14.10;;;;;;;;;;5054451;28;20162;-70
2022/10/11 07:35:36;;;;;;;25.30;15.70;;;;;;;;;;5054304;28;20632;-70
2022/10/11 07:38:03;;;;;;;24.70;15.83;;;;;;;;;;5054456;28;20238;-70
2022/10/11 07:40:29;;;;;;;23.37;18.20;;;;;;;;;;5054181;28;20180;-70
2022/10/11 07:42:56;;;;;;;28.13;17.37;;;;;;;;;;5054337;28;20249;-70
2022/10/11 07:45:22;;;;;;;26.53;16.87;;;;;;;;;;5054228;28;20582;-70
2022/10/11 07:47:48;;;;;;;30.47;17.80;;;;;;;;;;5053976;28;20186;-70
2022/10/11 07:50:14;;;;;;;31.70;17.33;;;;;;;;;;5054789;28;20170;-70
2022/10/11 07:52:40;;;;;;;28.53;17.43;;;;;;;;;;5054038;28;20230;-70
2022/10/11 07:55:06;;;;;;;27.27;16.97;;;;;;;;;;5054487;28;20265;-70
2022/10/11 07:57:32;;;;;;;27.17;16.80;;;;;;;;;;5054070;28;20181;-70
2022/10/11 07:59:58;;;;;;;26.50;16.20;;;;;;;;;;5054063;28;20183;-69
2022/10/11 08:02:24;;;;;;;22.33;15.50;;;;;;;;;;5035795;28;20289;-69
2022/10/11 08:04:50;;;;;;;25.13;15.90;;;;;;;;;;5053908;28;20220;-70
2022/10/11 08:07:16;;;;;;;33.17;15.93;;;;;;;;;;5053729;28;20217;-70
2022/10/11 08:09:42;;;;;;;22.50;15.10;;;;;;;;;;5053411;28;20182;-70
2022/10/11 08:12:09;;;;;;;26.53;16.47;;;;;;;;;;5035535;28;20209;-69
2022/10/11 08:14:34;;;;;;;26.07;16.97;;;;;;;;;;5035453;28;20187;-70
2022/10/11 08:17:01;;;;;;;24.30;15.97;;;;;;;;;;5053556;28;20220;-70
2022/10/11 08:19:27;;;;;;;33.43;16.17;;;;;;;;;;5035511;28;20214;-70
2022/10/11 08:21:53;;;;;;;27.30;16.27;;;;;;;;;;5053307;28;20213;-68
2022/10/11 08:24:19;;;;;;;28.93;15.33;;;;;;;;;;5053489;28;20178;-71
2022/10/11 08:26:46;;;;;;;31.87;15.80;;;;;;;;;;5053180;28;20279;-70
2022/10/11 08:29:13;;;;;;;27.80;15.70;;;;;;;;;;5035205;28;20182;-71
2022/10/11 08:31:39;;;;;;;28.57;15.20;;;;;;;;;;5035113;28;20237;-71
2022/10/11 08:34:05;;;;;;;32.23;17.03;;;;;;;;;;5035486;28;20306;-70
2022/10/11 08:36:31;;;;;;;28.57;15.70;;;;;;;;;;5053862;28;20178;-70
2022/10/11 08:38:57;;;;;;;23.53;14.97;;;;;;;;;;5053466;28;20644;-70
2022/10/11 08:41:23;;;;;;;24.10;15.20;;;;;;;;;;5035272;28;20211;-71
2022/10/11 08:44:13;;;;;;;23.00;13.30;;;;;;;;;;5035211;28;20647;-70
2022/10/11 08:46:39;;;;;;;19.20;12.97;;;;;;;;;;5040248;28;20198;-70
2022/10/11 08:49:06;;;;;;;24.50;12.37;;;;;;;;;;5052935;28;20175;-70
2022/10/11 08:51:44;;;;;;;25.67;10.77;;;;;;;;;;5035016;28;20210;-70
2022/10/11 08:54:13;;;;;;;20.33;10.43;;;;;;;;;;5052847;28;20182;-69
2022/10/11 08:56:40;;;;;;;15.60;10.43;;;;;;;;;;5053135;28;20182;-70
2022/10/11 08:59:17;;;;;;;21.47;11.47;;;;;;;;;;5035225;28;20182;-70
2022/10/11 09:01:49;;;;;;;20.80;10.87;;;;;;;;;;5052868;28;20263;-71
2022/10/11 09:04:16;;;;;;;20.17;10.50;;;;;;;;;;5034858;28;20190;-69
2022/10/11 09:07:03;;;;;;;18.67;10.73;;;;;;;;;;5034786;28;20610;-70
2022/10/11 09:09:29;;;;;;;16.87;9.93;;;;;;;;;;5035947;28;20561;-70
2022/10/11 09:11:55;;;;;;;16.20;10.27;;;;;;;;;;5052889;28;20199;-70
2022/10/11 09:14:34;;;;;;;27.93;9.67;;;;;;;;;;5053082;28;20182;-72
2022/10/11 09:17:06;;;;;;;16.47;8.30;;;;;;;;;;5034858;28;20174;-70
2022/10/11 09:19:44;;;;;;;16.33;7.33;;;;;;;;;;5034675;28;20186;-70
2022/10/11 09:22:27;;;;;;;20.73;7.40;;;;;;;;;;5034577;28;20213;-70
2022/10/11 09:24:53;;;;;;;17.27;7.27;;;;;;;;;;5034690;28;20274;-70
2022/10/11 09:27:20;;;;;;;20.00;7.77;;;;;;;;;;5034687;28;20214;-69
2022/10/11 09:29:49;;;;;;;18.40;7.20;;;;;;;;;;5034681;28;20183;-70
2022/10/11 09:32:17;;;;;;;15.13;6.83;;;;;;;;;;5052357;28;20214;-70
2022/10/11 09:34:43;;;;;;;15.77;6.50;;;;;;;;;;5055084;28;20270;-69
2022/10/11 09:37:35;;;;;;;17.23;6.97;;;;;;;;;;5056009;28;20265;-67
2022/10/11 09:40:22;;;;;;;16.10;6.83;;;;;;;;;;4994157;28;20201;-69
2022/10/11 09:42:47;;;;;;;18.87;7.00;;;;;;;;;;5055573;28;20279;-70
2022/10/11 09:45:16;;;;;;;14.07;5.97;;;;;;;;;;5056085;28;20175;-70
2022/10/11 09:47:42;;;;;;;17.83;6.20;;;;;;;;;;5037948;28;20187;-68
2022/10/11 09:50:17;;;;;;;17.37;6.00;;;;;;;;;;5038180;28;20186;-67
2022/10/11 09:52:49;;;;;;;15.30;5.93;;;;;;;;;;5038050;28;20181;-68
2022/10/11 09:55:33;;;;;;;16.17;6.40;;;;;;;;;;5037937;28;20174;-68
2022/10/11 09:57:59;;;;;;;15.20;5.07;;;;;;;;;;5037777;28;20182;-68
2022/10/11 10:00:26;;;;;;;11.17;5.03;;;;;;;;;;5056087;28;20178;-68
2022/10/11 10:02:54;;;;;;;14.33;5.10;;;;;;;;;;5055386;28;20749;-68
2022/10/11 10:05:28;;;;;;;10.17;5.23;;;;;;;;;;5037755;28;20559;-68
2022/10/11 10:08:21;;;;;;;14.83;5.40;;;;;;;;;;5037465;28;20270;-68
2022/10/11 10:10:56;;;;;;;11.40;4.93;;;;;;;;;;5051293;28;20206;-68
2022/10/11 10:13:23;;;;;;;19.77;6.00;;;;;;;;;;5055726;28;20527;-68
2022/10/11 10:15:52;;;;;;;18.33;5.80;;;;;;;;;;5037417;28;20183;-67
2022/10/11 10:18:38;;;;;;;11.83;4.83;;;;;;;;;;5037375;28;20606;-68
2022/10/11 10:21:13;;;;;;;11.80;4.83;;;;;;;;;;5054731;28;20305;-67
2022/10/11 10:23:39;;;;;;;16.63;4.53;;;;;;;;;;5055565;28;20162;-68
2022/10/11 10:26:10;;;;;;;14.13;4.13;;;;;;;;;;5037879;28;20182;-68
2022/10/11 10:28:36;;;;;;;12.30;3.93;;;;;;;;;;5040926;28;20274;-68
2022/10/11 10:31:01;;;;;;;11.27;3.67;;;;;;;;;;5059568;28;20241;-70
2022/10/11 10:33:33;;;;;;;16.30;5.10;;;;;;;;;;5041362;28;20627;-68
2022/10/11 10:36:08;;;;;;;7.87;3.43;;;;;;;;;;5058162;28;20261;-68
2022/10/11 10:38:36;;;;;;;15.13;4.10;;;;;;;;;;5055014;28;20224;-68
2022/10/11 10:41:05;;;;;;;12.63;3.80;;;;;;;;;;5054860;28;20210;-68
2022/10/11 10:43:35;;;;;;;14.77;4.00;;;;;;;;;;5054817;28;20235;-68
2022/10/11 10:46:20;;;;;;;13.13;3.70;;;;;;;;;;5054688;28;20325;-68
2022/10/11 10:49:11;;;;;;;11.30;3.53;;;;;;;;;;5036572;28;20174;-68
2022/10/11 10:51:43;;;;;;;10.40;4.20;;;;;;;;;;5054635;28;20285;-67
2022/10/11 10:54:09;;;;;;;11.93;3.60;;;;;;;;;;5054489;28;20179;-67
2022/10/11 10:56:48;;;;;;;10.83;3.20;;;;;;;;;;5036528;28;20182;-67
2022/10/11 10:59:19;;;;;;;11.17;4.20;;;;;;;;;;5054428;28;20205;-67
2022/10/11 11:02:09;;;;;;;19.13;4.57;;;;;;;;;;5036413;28;20682;-68
2022/10/11 11:04:35;;;;;;;13.13;3.63;;;;;;;;;;4999664;28;20561;-68
2022/10/11 11:07:14;;;;;;;12.53;4.20;;;;;;;;;;5036387;28;20175;-68
2022/10/11 11:09:49;;;;;;;12.27;3.97;;;;;;;;;;5054726;28;20654;-68
2022/10/11 11:12:20;;;;;;;14.43;3.50;;;;;;;;;;5036208;28;20249;-68
2022/10/11 11:14:58;;;;;;;16.33;3.53;;;;;;;;;;5054416;28;20638;-68
2022/10/11 11:17:32;;;;;;;8.90;3.33;;;;;;;;;;5054035;28;20627;-68
2022/10/11 11:20:23;;;;;;;14.90;4.30;;;;;;;;;;5036212;28;20183;-68
2022/10/11 11:22:55;;;;;;;7.97;2.53;;;;;;;;;;5036058;28;20213;-68
2022/10/11 11:25:29;;;;;;;12.50;2.97;;;;;;;;;;5035818;28;20216;-69
2022/10/11 11:28:07;;;;;;;10.33;3.20;;;;;;;;;;5054049;28;20186;-68
2022/10/11 11:30:43;;;;;;;11.00;3.17;;;;;;;;;;5053512;28;20178;-68
2022/10/11 11:33:28;;;;;;;12.83;3.50;;;;;;;;;;5054092;28;20216;-68
2022/10/11 11:35:56;;;;;;;12.63;2.83;;;;;;;;;;5053697;28;20170;-68
2022/10/11 11:38:33;;;;;;;10.43;2.90;;;;;;;;;;5053875;28;20246;-68
2022/10/11 11:41:01;;;;;;;9.73;3.27;;;;;;;;;;5035559;28;20217;-68
2022/10/11 11:43:31;;;;;;;9.53;2.80;;;;;;;;;;5053828;28;20174;-68
2022/10/11 11:46:00;;;;;;;9.23;2.70;;;;;;;;;;5053820;28;20174;-68
2022/10/11 11:48:26;;;;;;;12.80;3.00;;;;;;;;;;5053454;28;20600;-68
2022/10/11 11:50:52;;;;;;;7.83;2.33;;;;;;;;;;5053817;28;20202;-68
2022/10/11 11:53:21;;;;;;;10.33;2.37;;;;;;;;;;5053805;28;20194;-68
2022/10/11 11:55:58;;;;;;;14.67;3.10;;;;;;;;;;5035648;28;20197;-68
2022/10/11 11:58:42;;;;;;;11.60;2.73;;;;;;;;;;5053152;28;20253;-68
2022/10/11 12:01:11;;;;;;;8.20;2.50;;;;;;;;;;5053482;28;20209;-68
2022/10/11 12:03:39;;;;;;;12.00;3.13;;;;;;;;;;5053485;28;20186;-68
2022/10/11 12:06:14;;;;;;;11.63;3.27;;;;;;;;;;5053499;28;20198;-68
2022/10/11 12:08:42;;;;;;;11.27;2.73;;;;;;;;;;5053303;28;20184;-68
2022/10/11 12:11:18;;;;;;;9.00;2.60;;;;;;;;;;5053519;28;20669;-68
2022/10/11 12:13:45;;;;;;;13.17;3.67;;;;;;;;;;5053579;28;20166;-68
2022/10/11 12:16:11;;;;;;;8.10;3.67;;;;;;;;;;5053212;28;20179;-68
2022/10/11 12:18:49;;;;;;;17.00;4.50;;;;;;;;;;5053164;28;20647;-66
2022/10/11 12:21:20;;;;;;;11.93;4.07;;;;;;;;;;5053342;28;20209;-68
2022/10/11 12:23:47;;;;;;;11.87;3.90;;;;;;;;;;5035162;28;20643;-68
2022/10/11 12:26:29;;;;;;;12.40;3.93;;;;;;;;;;5053021;28;20224;-68
2022/10/11 12:29:14;;;;;;;12.23;4.03;;;;;;;;;;5053355;28;20175;-69
2022/10/11 12:31:40;;;;;;;13.67;5.00;;;;;;;;;;5053011;28;20214;-68
2022/10/11 12:34:08;;;;;;;17.90;4.93;;;;;;;;;;5053102;28;20178;-69
2022/10/11 12:36:39;;;;;;;14.17;4.10;;;;;;;;;;5035129;28;20189;-68
2022/10/11 12:39:21;;;;;;;10.00;4.37;;;;;;;;;;5035108;28;20217;-68
2022/10/11 12:41:49;;;;;;;14.90;4.23;;;;;;;;;;5035066;28;20216;-68
2022/10/11 12:44:21;;;;;;;24.17;4.40;;;;;;;;;;5035157;28;20185;-68
2022/10/11 12:46:52;;;;;;;11.17;4.00;;;;;;;;;;5034995;28;20624;-68
2022/10/11 12:49:31;;;;;;;15.53;4.33;;;;;;;;;;5052870;28;20257;-66
2022/10/11 12:52:05;;;;;;;12.13;4.07;;;;;;;;;;5052834;28;20658;-65
2022/10/11 12:54:44;;;;;;;10.83;4.13;;;;;;;;;;5035130;28;20182;-65
2022/10/11 12:57:29;;;;;;;13.37;4.27;;;;;;;;;;5053152;28;20212;-66
2022/10/11 13:00:06;;;;;;;13.10;4.57;;;;;;;;;;5034893;28;20185;-66
2022/10/11 13:02:41;;;;;;;11.60;4.60;;;;;;;;;;5052536;28;20210;-66
2022/10/11 13:05:14;;;;;;;9.87;4.10;;;;;;;;;;5034902;28;20649;-66
2022/10/11 13:07:41;;;;;;;12.73;3.97;;;;;;;;;;5053160;28;20163;-66
2022/10/11 13:10:07;;;;;;;13.70;3.80;;;;;;;;;;5037743;28;20597;-67
2022/10/11 13:12:40;;;;;;;12.80;4.90;;;;;;;;;;5038580;28;20206;-66
2022/10/11 13:15:08;;;;;;;10.47;4.50;;;;;;;;;;5056672;28;20677;-69
2022/10/11 13:17:36;;;;;;;11.87;4.80;;;;;;;;;;5038405;28;20240;-67
2022/10/11 13:20:09;;;;;;;10.00;3.43;;;;;;;;;;5056644;28;20190;-67
2022/10/11 13:22:38;;;;;;;11.20;3.57;;;;;;;;;;5038373;28;20264;-69
2022/10/11 13:25:05;;;;;;;11.63;4.23;;;;;;;;;;5038316;28;20179;-67
2022/10/11 13:27:32;;;;;;;9.40;4.20;;;;;;;;;;5039144;28;20530;-67
2022/10/11 13:29:59;;;;;;;13.47;4.60;;;;;;;;;;5038208;28;20182;-69
2022/10/11 13:32:27;;;;;;;10.87;4.37;;;;;;;;;;5037928;28;20225;-67
2022/10/11 13:34:56;;;;;;;12.23;3.73;;;;;;;;;;5038093;28;20190;-67
2022/10/11 13:37:23;;;;;;;11.17;3.10;;;;;;;;;;5055810;28;20217;-68
2022/10/11 13:39:53;;;;;;;7.33;2.93;;;;;;;;;;5055868;28;20528;-68
2022/10/11 13:42:21;;;;;;;8.33;3.30;;;;;;;;;;5058396;23;20218;-65
2022/10/11 13:44:47;;;;;;;14.67;4.07;;;;;;;;;;5035903;28;20656;-65
2022/10/11 13:47:14;;;;;;;9.87;3.30;;;;;;;;;;5017885;28;20270;-65
2022/10/11 13:49:43;;;;;;;11.33;4.50;;;;;;;;;;5017882;28;20293;-65
2022/10/11 13:52:20;;;;;;;12.53;4.17;;;;;;;;;;5035522;28;20202;-67
2022/10/11 13:54:52;;;;;;;8.50;4.27;;;;;;;;;;5017802;28;20182;-66
2022/10/11 13:57:19;;;;;;;8.10;4.07;;;;;;;;;;5035799;28;20207;-66
2022/10/11 13:59:45;;;;;;;8.83;3.67;;;;;;;;;;5035536;28;20201;-66
2022/10/11 14:02:17;;;;;;;13.10;4.40;;;;;;;;;;5035654;28;20210;-66
2022/10/11 14:04:43;;;;;;;13.23;4.40;;;;;;;;;;5017689;28;20180;-65
2022/10/11 14:07:26;;;;;;;11.93;5.57;;;;;;;;;;5035656;28;20179;-66
2022/10/11 14:09:53;;;;;;;9.67;4.27;;;;;;;;;;5017601;28;20616;-66
2022/10/11 14:12:25;;;;;;;12.37;4.43;;;;;;;;;;5035554;28;20209;-66
2022/10/11 14:14:51;;;;;;;14.13;4.10;;;;;;;;;;5035530;28;20183;-66
2022/10/11 14:17:23;;;;;;;14.60;4.37;;;;;;;;;;5035601;28;20178;-66
2022/10/11 14:20:08;;;;;;;10.80;3.30;;;;;;;;;;5017134;28;20184;-65
2022/10/11 14:22:34;;;;;;;13.30;4.40;;;;;;;;;;5035541;28;20225;-66
2022/10/11 14:25:00;;;;;;;12.03;3.67;;;;;;;;;;5035538;28;20638;-65
2022/10/11 14:27:27;;;;;;;14.47;4.33;;;;;;;;;;5017478;28;20229;-66
2022/10/11 14:29:53;;;;;;;8.97;3.93;;;;;;;;;;5035134;28;20222;-66
2022/10/11 14:32:29;;;;;;;12.90;4.17;;;;;;;;;;5035304;28;20671;-66
2022/10/11 14:34:55;;;;;;;15.00;8.00;;;;;;;;;;5016969;28;20261;-65
2022/10/11 14:37:22;;;;;;;10.67;3.73;;;;;;;;;;5035022;28;20186;-66